Time;durP1;ratioP1;P1;durP2;ratioP2;P2;SDS_P1;SDS_P2;PMS_P1;PMS_P2;Temp;Humidity;BMP_temperature;BMP_pressure;BME280_temperature;BME280_humidity;BME280_pressure;Samples;Min_cycle;Max_cycle;Signal;HPM_P1;HPM_P2
2022/08/22 00:02:22;;;;;;;3.90;1.00;;;22.00;59.50;;;;;;4958413;28;20559;-72
2022/08/22 00:05:25;;;;;;;2.40;1.10;;;21.90;59.70;;;;;;4975982;28;20705;-72
2022/08/22 00:08:17;;;;;;;2.60;0.90;;;21.90;60.10;;;;;;4958503;28;20658;-72
2022/08/22 00:11:07;;;;;;;3.10;1.00;;;21.90;60.30;;;;;;4958351;28;20585;-72
2022/08/22 00:14:11;;;;;;;3.10;1.10;;;21.80;60.80;;;;;;4975533;28;20595;-72
2022/08/22 00:16:40;;;;;;;3.90;1.07;;;21.80;61.10;;;;;;4962577;28;20921;-72
2022/08/22 00:19:17;;;;;;;4.70;1.20;;;21.80;61.20;;;;;;4975009;28;20717;-72
2022/08/22 00:21:57;;;;;;;3.03;1.00;;;21.70;61.40;;;;;;4958205;28;20681;-73
2022/08/22 00:24:53;;;;;;;4.33;0.90;;;21.60;62.30;;;;;;4975139;28;20709;-72
2022/08/22 00:27:36;;;;;;;3.33;1.10;;;21.60;63.00;;;;;;4973154;28;21185;-72
2022/08/22 00:30:10;;;;;;;3.07;0.90;;;21.60;63.40;;;;;;4975252;28;20933;-71
2022/08/22 00:32:55;;;;;;;6.23;1.00;;;21.50;63.40;;;;;;4975020;28;20554;-71
2022/08/22 00:35:37;;;;;;;2.43;1.00;;;21.50;64.20;;;;;;4999821;28;20668;-72
2022/08/22 00:38:15;;;;;;;3.80;1.13;;;21.50;64.90;;;;;;5010488;28;20629;-71
2022/08/22 00:41:00;;;;;;;2.53;1.00;;;21.40;64.90;;;;;;4981007;28;20584;-72
2022/08/22 00:43:46;;;;;;;2.60;1.10;;;21.40;65.80;;;;;;4996153;28;21190;-72
2022/08/22 00:46:27;;;;;;;3.80;1.83;;;21.30;65.60;;;;;;4999500;28;20578;-72
2022/08/22 00:49:15;;;;;;;3.67;1.10;;;21.30;66.50;;;;;;4993828;28;20635;-72
2022/08/22 00:52:03;;;;;;;5.10;1.70;;;21.30;66.60;;;;;;4996198;28;20584;-72
2022/08/22 00:54:52;;;;;;;2.33;1.03;;;21.20;67.70;;;;;;5013860;28;21193;-71
2022/08/22 00:57:29;;;;;;;3.87;1.10;;;21.20;68.40;;;;;;4976577;28;20978;-72
2022/08/22 00:59:58;;;;;;;4.70;1.20;;;21.20;68.90;;;;;;5012740;28;20956;-71
2022/08/22 01:02:55;;;;;;;2.63;0.80;;;21.20;68.80;;;;;;4995937;28;20584;-71
2022/08/22 01:05:39;;;;;;;3.47;1.13;;;21.10;70.10;;;;;;4996226;28;20601;-72
2022/08/22 01:08:33;;;;;;;2.80;1.10;;;21.10;69.80;;;;;;4995982;28;21153;-72
2022/08/22 01:11:32;;;;;;;3.60;1.87;;;21.10;71.10;;;;;;4999360;28;20582;-72
2022/08/22 01:14:35;;;;;;;5.90;2.40;;;21.10;72.00;;;;;;5014000;28;20605;-72
2022/08/22 01:17:35;;;;;;;2.43;1.10;;;21.00;72.40;;;;;;4995478;28;20601;-72
2022/08/22 01:20:28;;;;;;;7.00;2.27;;;21.00;72.90;;;;;;4966030;28;20589;-72
2022/08/22 01:23:12;;;;;;;6.03;1.40;;;21.00;73.40;;;;;;4995691;28;20573;-72
2022/08/22 01:25:57;;;;;;;3.60;1.53;;;21.00;73.30;;;;;;4995620;28;20593;-73
2022/08/22 01:28:37;;;;;;;4.10;1.03;;;20.90;73.80;;;;;;5013078;28;20601;-72
2022/08/22 01:31:34;;;;;;;2.93;1.17;;;20.90;74.40;;;;;;5013191;28;20580;-72
2022/08/22 01:34:37;;;;;;;3.67;0.87;;;20.80;75.90;;;;;;5013123;28;20605;-73
2022/08/22 01:37:34;;;;;;;4.47;1.43;;;20.80;76.40;;;;;;4995316;28;20688;-72
2022/08/22 01:40:22;;;;;;;4.70;1.30;;;20.80;77.80;;;;;;5013077;28;21181;-73
2022/08/22 01:43:05;;;;;;;2.60;1.27;;;20.70;77.50;;;;;;4995377;28;20577;-72
2022/08/22 01:45:49;;;;;;;3.10;1.27;;;20.70;77.90;;;;;;5012961;28;20920;-72
2022/08/22 01:48:34;;;;;;;3.50;1.50;;;20.70;78.40;;;;;;5012747;28;20585;-72
2022/08/22 01:51:18;;;;;;;3.83;1.30;;;20.70;79.00;;;;;;4979168;28;20927;-72
2022/08/22 01:54:03;;;;;;;3.50;1.93;;;20.60;79.70;;;;;;5012873;28;20608;-73
2022/08/22 01:56:37;;;;;;;3.40;1.40;;;20.60;79.90;;;;;;5012946;28;20577;-72
2022/08/22 02:03:41;;;;;;;4.40;1.20;;;20.60;81.60;;;;;;5012561;28;20616;-72
2022/08/22 02:06:20;;;;;;;2.10;1.17;;;20.50;81.50;;;;;;4994836;28;20585;-72
2022/08/22 02:08:57;;;;;;;2.43;0.93;;;20.50;82.00;;;;;;4994986;28;20570;-72
2022/08/22 02:11:53;;;;;;;2.80;1.20;;;20.50;82.40;;;;;;5011886;28;20572;-72
2022/08/22 02:14:31;;;;;;;4.43;1.60;;;20.40;83.20;;;;;;4994096;28;20617;-72
2022/08/22 02:17:12;;;;;;;2.77;1.20;;;20.40;83.90;;;;;;4994869;28;20577;-72
2022/08/22 02:19:49;;;;;;;4.90;1.73;;;20.40;84.40;;;;;;4994538;28;20580;-72
2022/08/22 02:22:33;;;;;;;5.30;1.43;;;20.40;84.40;;;;;;5012291;28;20573;-72
2022/08/22 02:25:04;;;;;;;7.90;1.60;;;20.40;85.60;;;;;;5012314;28;20605;-73
2022/08/22 02:27:37;;;;;;;3.90;1.50;;;20.40;85.20;;;;;;5012204;28;20604;-72
2022/08/22 02:30:08;;;;;;;3.30;1.27;;;20.40;85.60;;;;;;5011802;28;20572;-72
2022/08/22 02:32:40;;;;;;;4.97;1.77;;;20.40;86.40;;;;;;5012784;28;20672;-72
2022/08/22 02:35:11;;;;;;;7.63;1.80;;;20.40;87.00;;;;;;5011980;28;20596;-73
2022/08/22 02:37:53;;;;;;;5.53;1.80;;;20.40;87.50;;;;;;4994411;28;20633;-73
2022/08/22 02:40:47;;;;;;;7.40;1.80;;;20.40;87.90;;;;;;5011784;28;20565;-73
2022/08/22 02:43:35;;;;;;;6.30;2.33;;;20.40;88.60;;;;;;4994242;28;20988;-72
2022/08/22 02:46:13;;;;;;;5.40;1.67;;;20.40;89.10;;;;;;4994331;28;20570;-72
2022/08/22 02:49:29;;;;;;;4.17;2.47;;;20.40;89.20;;;;;;5011677;28;20561;-72
2022/08/22 02:52:14;;;;;;;3.50;1.20;;;20.40;89.40;;;;;;4951453;28;20594;-72
2022/08/22 02:55:10;;;;;;;5.20;1.27;;;20.50;89.80;;;;;;4993876;28;20663;-72
2022/08/22 02:58:11;;;;;;;6.77;1.50;;;20.40;89.80;;;;;;5010227;28;20677;-72
2022/08/22 03:00:46;;;;;;;5.70;1.70;;;20.50;90.10;;;;;;4981008;28;20581;-72
2022/08/22 03:03:22;;;;;;;6.50;1.60;;;20.50;90.20;;;;;;4993727;28;20576;-72
2022/08/22 03:06:01;;;;;;;3.10;1.30;;;20.50;90.30;;;;;;4994321;28;20569;-72
2022/08/22 03:08:31;;;;;;;3.00;1.50;;;20.40;90.50;;;;;;5012011;28;20978;-74
2022/08/22 03:11:30;;;;;;;3.07;1.50;;;20.40;90.50;;;;;;5011317;28;20565;-73
2022/08/22 03:14:04;;;;;;;2.77;1.70;;;20.40;90.80;;;;;;4994017;28;20593;-73
2022/08/22 03:16:39;;;;;;;5.07;1.10;;;20.40;90.90;;;;;;4994028;28;20564;-73
2022/08/22 03:19:11;;;;;;;2.57;1.30;;;20.30;91.10;;;;;;5011414;28;20980;-73
2022/08/22 03:21:53;;;;;;;3.13;1.50;;;20.30;91.10;;;;;;5011303;28;20566;-73
2022/08/22 03:24:51;;;;;;;8.03;2.17;;;20.20;91.40;;;;;;4993237;28;20620;-73
2022/08/22 03:27:32;;;;;;;3.10;1.63;;;20.20;91.70;;;;;;4996030;28;20921;-73
2022/08/22 03:30:04;;;;;;;4.70;1.53;;;20.20;91.90;;;;;;4994382;28;20939;-73
2022/08/22 03:33:11;;;;;;;4.30;1.63;;;20.10;91.80;;;;;;4995765;28;20589;-73
2022/08/22 03:35:48;;;;;;;2.90;1.27;;;20.10;92.20;;;;;;4994560;28;20582;-73
2022/08/22 03:38:26;;;;;;;4.07;1.60;;;20.00;92.70;;;;;;4995559;28;20719;-73
2022/08/22 03:41:18;;;;;;;4.60;1.70;;;20.00;92.60;;;;;;4977843;28;20588;-74
2022/08/22 03:44:02;;;;;;;2.83;1.27;;;20.00;92.80;;;;;;4995569;28;20602;-73
2022/08/22 03:46:46;;;;;;;4.77;1.93;;;19.90;93.00;;;;;;4996023;28;20577;-73
2022/08/22 03:49:18;;;;;;;3.40;1.47;;;19.90;93.30;;;;;;4995305;28;20562;-73
2022/08/22 03:52:13;;;;;;;4.20;1.50;;;19.90;93.10;;;;;;4993992;28;20628;-73
2022/08/22 03:54:58;;;;;;;2.40;1.67;;;19.90;93.70;;;;;;4995369;28;20598;-73
2022/08/22 03:57:23;;;;;;;3.57;1.80;;;19.90;93.80;;;;;;4977738;28;20707;-72
2022/08/22 04:00:11;;;;;;;3.40;1.57;;;19.90;93.80;;;;;;4994990;28;21135;-72
2022/08/22 04:02:58;;;;;;;6.83;2.47;;;19.80;94.30;;;;;;4993826;28;20179;-72
2022/08/22 04:05:24;;;;;;;2.50;1.60;;;19.80;94.10;;;;;;4994924;28;20598;-72
2022/08/22 04:08:08;;;;;;;2.87;1.80;;;19.80;94.30;;;;;;4995327;28;20576;-72
2022/08/22 04:10:46;;;;;;;3.10;1.57;;;19.80;95.10;;;;;;4993732;28;20190;-72
2022/08/22 04:13:42;;;;;;;2.77;1.93;;;19.80;94.80;;;;;;4993503;28;20574;-73
2022/08/22 04:16:27;;;;;;;4.80;1.93;;;19.80;95.40;;;;;;4991639;28;20601;-72
2022/08/22 04:19:32;;;;;;;6.27;2.60;;;19.80;95.60;;;;;;4985023;28;20638;-72
2022/08/22 04:22:30;;;;;;;6.87;2.40;;;19.80;95.90;;;;;;4984484;28;20705;-72
2022/08/22 04:25:14;;;;;;;6.90;2.23;;;19.80;96.40;;;;;;4983729;28;20640;-72
2022/08/22 04:27:59;;;;;;;6.60;2.30;;;19.80;96.20;;;;;;5011467;23;20802;-76
2022/08/22 04:30:49;;;;;;;4.40;1.97;;;19.80;96.50;;;;;;4981013;28;20717;-77
2022/08/22 04:33:38;;;;;;;2.67;1.53;;;19.80;97.20;;;;;;4994489;28;20566;-75
2022/08/22 04:36:16;;;;;;;3.93;2.47;;;19.80;97.40;;;;;;4993329;28;20562;-76
2022/08/22 04:39:09;;;;;;;4.67;1.83;;;19.80;97.20;;;;;;4975882;28;20680;-77
2022/08/22 04:42:07;;;;;;;3.60;2.20;;;19.80;97.40;;;;;;4974484;28;20618;-77
2022/08/22 04:44:46;;;;;;;4.50;2.30;;;19.90;97.60;;;;;;4973939;28;20614;-76
2022/08/22 04:47:47;;;;;;;3.73;1.73;;;19.90;97.60;;;;;;4975096;28;20617;-76
2022/08/22 04:50:35;;;;;;;4.20;1.97;;;19.90;98.00;;;;;;4974723;28;20573;-77
2022/08/22 04:53:11;;;;;;;4.17;2.27;;;20.00;98.20;;;;;;4973555;28;20594;-77
2022/08/22 04:55:43;;;;;;;3.70;2.10;;;20.00;98.30;;;;;;4973662;28;20614;-77
2022/08/22 04:58:45;;;;;;;5.10;1.90;;;20.00;98.60;;;;;;4973220;28;20638;-77
2022/08/22 05:01:21;;;;;;;5.23;2.30;;;20.10;98.90;;;;;;4973028;28;20577;-77
2022/08/22 05:04:05;;;;;;;4.20;2.30;;;20.10;98.90;;;;;;4974779;28;20613;-76
2022/08/22 05:06:38;;;;;;;4.83;2.17;;;20.20;99.10;;;;;;4974436;28;20571;-77
2022/08/22 05:09:12;;;;;;;5.70;2.20;;;20.30;99.10;;;;;;4974698;28;20637;-77
2022/08/22 05:11:40;;;;;;;3.70;2.00;;;20.30;99.10;;;;;;4973092;28;20586;-77
2022/08/22 05:14:15;;;;;;;4.57;2.20;;;20.40;99.20;;;;;;4973337;28;20658;-77
2022/08/22 05:16:44;;;;;;;3.47;1.70;;;20.50;99.40;;;;;;4974859;28;20566;-77
2022/08/22 05:19:15;;;;;;;3.70;2.10;;;20.60;99.30;;;;;;4974107;28;20642;-77
2022/08/22 05:21:43;;;;;;;4.70;2.13;;;20.60;99.40;;;;;;4968562;28;20594;-76
2022/08/22 05:24:24;;;;;;;6.53;2.60;;;20.70;99.40;;;;;;4964873;28;20588;-77
2022/08/22 05:26:54;;;;;;;6.20;2.07;;;20.80;99.70;;;;;;4965635;28;20638;-76
2022/08/22 05:29:26;;;;;;;4.37;3.00;;;20.90;99.80;;;;;;4965816;28;20583;-77
2022/08/22 05:32:04;;;;;;;4.50;1.90;;;20.90;99.80;;;;;;4964342;28;20999;-77
2022/08/22 05:34:38;;;;;;;4.50;2.07;;;21.00;99.90;;;;;;4946875;29;20602;-76
2022/08/22 05:37:29;;;;;;;6.63;2.23;;;21.10;99.90;;;;;;4962588;28;20647;-76
2022/08/22 05:39:58;;;;;;;4.93;3.27;;;21.20;99.90;;;;;;4937121;29;21138;-76
2022/08/22 05:42:33;;;;;;;4.13;1.70;;;21.30;99.90;;;;;;4954660;29;20623;-76
2022/08/22 05:45:06;;;;;;;4.93;2.27;;;21.50;99.90;;;;;;4953620;29;20993;-75
2022/08/22 05:47:40;;;;;;;2.77;2.27;;;21.60;99.80;;;;;;4953218;29;20720;-74
2022/08/22 05:50:06;;;;;;;4.97;2.83;;;21.70;99.80;;;;;;4953656;29;20686;-81
2022/08/22 05:52:38;;;;;;;4.30;2.53;;;21.80;99.60;;;;;;4956138;28;21192;-81
2022/08/22 05:55:07;;;;;;;5.50;1.73;;;21.80;99.50;;;;;;4973081;28;20678;-81
2022/08/22 05:57:37;;;;;;;9.67;2.27;;;22.00;99.40;;;;;;4987867;28;20673;-81
2022/08/22 06:00:13;;;;;;;4.73;2.50;;;22.00;99.40;;;;;;4969556;28;20583;-81
2022/08/22 06:03:16;;;;;;;3.77;2.10;;;22.10;99.30;;;;;;4975793;28;20589;-80
2022/08/22 06:05:48;;;;;;;4.00;2.10;;;22.20;99.30;;;;;;4954838;28;21139;-80
2022/08/22 06:08:24;;;;;;;6.10;2.43;;;22.30;99.20;;;;;;4950429;28;20623;-81
2022/08/22 06:10:56;;;;;;;6.97;1.93;;;22.40;99.20;;;;;;4974702;28;20592;-80
2022/08/22 06:13:34;;;;;;;4.20;2.37;;;22.50;99.10;;;;;;4974623;28;20960;-79
2022/08/22 06:16:00;;;;;;;6.20;2.47;;;22.70;99.10;;;;;;4973571;28;21369;-81
2022/08/22 06:18:27;;;;;;;4.70;2.10;;;22.80;99.00;;;;;;4950682;28;20725;-80
2022/08/22 06:20:53;;;;;;;2.87;1.87;;;23.00;99.00;;;;;;4973048;28;20568;-80
2022/08/22 06:23:42;;;;;;;6.57;3.03;;;23.10;98.90;;;;;;4973117;28;20576;-80
2022/08/22 06:26:10;;;;;;;4.37;2.23;;;23.20;98.60;;;;;;4971806;28;20187;-80
2022/08/22 06:28:43;;;;;;;4.40;2.40;;;23.40;98.60;;;;;;4999752;28;20620;-80
2022/08/22 06:31:18;;;;;;;5.93;2.57;;;23.60;98.50;;;;;;4994437;28;20616;-79
2022/08/22 06:33:52;;;;;;;6.15;3.55;;;24.00;99.00;;;;;;4995108;28;20809;-81
2022/08/22 06:36:31;;;;;;;5.13;2.30;;;24.80;96.90;;;;;;4990343;28;20167;-80
2022/08/22 06:39:05;;;;;;;5.63;2.88;;;25.10;97.20;;;;;;4983638;28;20753;-79
2022/08/22 06:41:34;;;;;;;4.40;2.10;;;25.50;95.20;;;;;;4989905;28;20254;-80
2022/08/22 06:44:04;;;;;;;3.17;2.00;;;25.80;95.80;;;;;;4980363;28;21178;-80
2022/08/22 06:46:34;;;;;;;3.70;2.10;;;26.30;95.60;;;;;;4971357;28;20674;-80
2022/08/22 06:49:03;;;;;;;2.90;2.10;;;26.50;94.80;;;;;;4975804;28;20569;-80
2022/08/22 06:51:29;;;;;;;5.17;2.10;;;26.90;94.80;;;;;;4992262;28;20566;-80
2022/08/22 06:54:02;;;;;;;4.80;2.17;;;27.40;94.70;;;;;;4989398;28;20619;-79
2022/08/22 06:56:35;;;;;;;4.60;2.70;;;27.90;94.10;;;;;;4981642;28;20621;-80
2022/08/22 06:59:06;;;;;;;2.67;1.63;;;28.80;94.00;;;;;;4997706;28;20626;-80
2022/08/22 07:01:37;;;;;;;4.73;1.67;;;29.70;93.80;;;;;;4975766;28;20582;-81
2022/08/22 07:04:10;;;;;;;5.63;1.70;;;30.60;92.90;;;;;;4994569;28;21005;-80
2022/08/22 07:06:40;;;;;;;5.90;1.80;;;31.30;91.60;;;;;;4977364;28;20576;-80
2022/08/22 07:09:18;;;;;;;4.00;2.00;;;32.10;90.50;;;;;;5005385;28;20576;-80
2022/08/22 07:11:45;;;;;;;4.60;1.80;;;32.90;87.10;;;;;;5012577;28;20614;-81
2022/08/22 07:14:15;;;;;;;3.40;1.90;;;33.80;85.40;;;;;;5013016;28;20592;-80
2022/08/22 07:16:58;;;;;;;3.60;1.70;;;34.60;81.60;;;;;;5011791;28;20584;-81
2022/08/22 07:19:33;;;;;;;5.67;1.50;;;35.40;78.10;;;;;;4975790;28;20582;-80
2022/08/22 07:22:30;;;;;;;4.47;1.73;;;36.10;73.40;;;;;;4993651;28;20725;-80
2022/08/22 07:25:02;;;;;;;3.90;1.70;;;36.70;68.20;;;;;;4994281;28;21166;-80
2022/08/22 07:27:49;;;;;;;3.90;1.27;;;37.40;65.80;;;;;;4992462;28;20717;-80
2022/08/22 07:30:17;;;;;;;6.30;2.40;;;37.90;62.70;;;;;;4995405;28;20617;-80
2022/08/22 07:33:07;;;;;;;2.50;1.33;;;38.50;59.40;;;;;;5010519;28;20573;-79
2022/08/22 07:35:44;;;;;;;3.77;1.70;;;38.90;50.30;;;;;;5012252;28;20967;-79
2022/08/22 07:38:36;;;;;;;3.43;1.30;;;39.20;53.70;;;;;;4974443;28;20641;-79
2022/08/22 07:41:01;;;;;;;2.80;1.57;;;39.30;52.00;;;;;;4978072;28;20623;-79
2022/08/22 07:43:30;;;;;;;3.60;1.53;;;39.50;50.90;;;;;;4975595;28;20663;-78
2022/08/22 07:46:01;;;;;;;4.60;1.30;;;39.40;48.30;;;;;;4993634;28;20167;-79
2022/08/22 07:48:37;;;;;;;3.40;1.10;;;39.20;48.30;;;;;;4974517;28;20772;-78
2022/08/22 07:51:06;;;;;;;3.90;1.43;;;39.20;47.10;;;;;;4994215;28;20568;-78
2022/08/22 07:53:41;;;;;;;2.50;1.43;;;39.30;47.30;;;;;;4974532;28;20598;-78
2022/08/22 07:56:16;;;;;;;3.17;1.13;;;39.30;46.20;;;;;;4991577;28;20680;-78
2022/08/22 07:58:45;;;;;;;3.23;1.07;;;39.30;46.10;;;;;;5008452;28;20649;-78
2022/08/22 08:01:16;;;;;;;4.13;1.87;;;39.20;44.20;;;;;;4960487;28;20595;-78
2022/08/22 08:03:49;;;;;;;4.30;1.40;;;39.30;44.80;;;;;;4954317;28;20975;-78
2022/08/22 08:06:16;;;;;;;5.03;1.20;;;39.50;44.40;;;;;;4968775;28;20656;-79
2022/08/22 08:08:43;;;;;;;2.13;1.00;;;39.60;44.00;;;;;;4962251;28;21202;-79
2022/08/22 08:11:13;;;;;;;6.43;1.40;;;39.90;43.80;;;;;;4980398;28;20585;-79
2022/08/22 08:13:43;;;;;;;3.30;1.00;;;40.30;42.70;;;;;;4993747;28;20573;-79
2022/08/22 08:16:16;;;;;;;3.27;1.30;;;40.60;41.80;;;;;;4996329;28;20562;-80
2022/08/22 08:18:47;;;;;;;2.77;1.23;;;40.90;41.00;;;;;;4946974;28;20609;-80
2022/08/22 08:21:28;;;;;;;6.60;1.10;;;41.30;39.70;;;;;;4962135;28;20579;-79
2022/08/22 08:23:55;;;;;;;2.37;0.93;;;41.50;39.00;;;;;;4960820;28;20591;-80
2022/08/22 08:26:27;;;;;;;3.50;1.10;;;41.80;39.30;;;;;;4995777;28;20548;-79
2022/08/22 08:28:55;;;;;;;3.23;1.33;;;42.20;38.60;;;;;;4962409;28;21051;-80
2022/08/22 08:31:30;;;;;;;2.87;1.10;;;42.60;37.70;;;;;;4976861;28;20574;-81
2022/08/22 08:34:12;;;;;;;2.57;1.03;;;42.90;37.10;;;;;;4995780;28;20578;-80
2022/08/22 08:36:57;;;;;;;2.70;1.03;;;43.20;37.00;;;;;;4998738;28;20597;-79
2022/08/22 08:39:48;;;;;;;3.33;1.23;;;43.50;36.40;;;;;;5001436;28;20582;-79
2022/08/22 08:42:23;;;;;;;5.07;1.70;;;43.80;33.50;;;;;;4946035;28;20649;-79
2022/08/22 08:45:36;;;;;;;2.10;1.00;;;43.80;33.70;;;;;;4944877;28;20951;-78
2022/08/22 08:48:42;;;;;;;3.47;1.20;;;43.70;34.70;;;;;;4917192;29;20669;-79
2022/08/22 08:51:34;;;;;;;3.40;1.33;;;43.70;34.70;;;;;;4973251;28;20677;-79
2022/08/22 08:54:33;;;;;;;2.17;0.90;;;43.80;33.00;;;;;;4979093;28;20584;-79
2022/08/22 08:57:28;;;;;;;4.10;1.20;;;43.80;34.10;;;;;;4982963;28;20636;-79
2022/08/22 09:00:10;;;;;;;2.97;0.87;;;43.70;31.20;;;;;;4967092;28;21107;-79
2022/08/22 09:02:58;;;;;;;3.90;1.00;;;43.50;31.90;;;;;;5000053;28;20581;-80
2022/08/22 09:05:39;;;;;;;2.07;0.73;;;43.50;32.00;;;;;;4959952;28;20567;-80
2022/08/22 09:08:42;;;;;;;2.80;0.83;;;43.50;31.90;;;;;;4976463;28;20981;-79
2022/08/22 09:11:17;;;;;;;2.30;1.00;;;43.60;31.40;;;;;;4964673;28;20574;-80
2022/08/22 09:14:07;;;;;;;1.90;0.60;;;43.50;31.20;;;;;;4980702;28;20980;-80
2022/08/22 09:16:55;;;;;;;1.50;0.70;;;43.70;31.00;;;;;;4980224;28;20575;-80
2022/08/22 09:19:55;;;;;;;2.20;0.70;;;43.80;30.60;;;;;;4981739;28;20594;-79
2022/08/22 09:22:32;;;;;;;2.83;1.00;;;44.10;31.20;;;;;;4978818;28;20574;-80
2022/08/22 09:25:39;;;;;;;3.07;1.00;;;44.40;30.30;;;;;;5003384;28;20566;-80
2022/08/22 09:28:18;;;;;;;3.17;1.00;;;44.10;30.00;;;;;;4955958;28;20693;-80
2022/08/22 09:31:02;;;;;;;2.03;0.80;;;43.90;29.40;;;;;;4964279;28;20618;-80
2022/08/22 09:34:20;;;;;;;2.70;0.93;;;43.50;29.20;;;;;;5001607;28;20981;-79
2022/08/22 09:37:15;;;;;;;2.10;0.80;;;43.10;28.90;;;;;;4944400;28;20631;-80
2022/08/22 09:39:59;;;;;;;3.27;0.90;;;42.50;28.70;;;;;;5018745;28;20970;-79
2022/08/22 09:42:37;;;;;;;3.90;0.80;;;42.20;29.30;;;;;;5013576;28;20565;-78
2022/08/22 09:45:33;;;;;;;1.63;0.80;;;41.80;28.80;;;;;;5013485;28;20583;-78
2022/08/22 09:48:08;;;;;;;4.60;0.80;;;41.40;28.80;;;;;;5016632;28;20624;-79
2022/08/22 09:50:46;;;;;;;2.00;0.87;;;41.20;29.30;;;;;;4981684;28;20939;-80
2022/08/22 09:53:38;;;;;;;2.23;0.80;;;40.80;29.30;;;;;;5016493;28;20573;-80
2022/08/22 09:56:35;;;;;;;1.77;0.83;;;40.60;30.00;;;;;;4991307;28;20628;-81
2022/08/22 09:59:04;;;;;;;3.13;1.00;;;40.20;29.50;;;;;;5014986;28;20928;-80
2022/08/22 10:01:38;;;;;;;2.13;0.80;;;39.50;29.40;;;;;;4997527;28;20703;-80
2022/08/22 10:04:13;;;;;;;1.93;0.80;;;38.90;29.70;;;;;;4997009;28;20561;-80
2022/08/22 10:06:58;;;;;;;2.70;1.00;;;38.40;30.10;;;;;;5017196;28;20595;-79
2022/08/22 10:10:00;;;;;;;2.23;0.90;;;38.20;30.50;;;;;;4984356;28;20623;-79
2022/08/22 10:12:31;;;;;;;1.93;0.90;;;38.50;31.60;;;;;;5000941;28;20580;-79
2022/08/22 10:15:06;;;;;;;2.50;0.97;;;38.80;31.20;;;;;;5021329;28;20620;-79
2022/08/22 10:17:36;;;;;;;2.43;0.77;;;39.00;31.10;;;;;;4997924;28;20604;-80
2022/08/22 10:20:35;;;;;;;2.13;0.90;;;39.20;31.40;;;;;;5015064;28;20730;-79
2022/08/22 10:23:22;;;;;;;2.27;0.80;;;39.50;31.40;;;;;;5000936;28;20604;-79
2022/08/22 10:25:53;;;;;;;3.50;0.90;;;39.70;31.00;;;;;;5014832;28;20600;-80
2022/08/22 10:28:45;;;;;;;2.50;0.90;;;39.80;31.00;;;;;;5015127;28;20636;-80
2022/08/22 10:31:24;;;;;;;2.17;0.90;;;40.20;31.10;;;;;;4999689;28;20570;-80
2022/08/22 10:34:08;;;;;;;2.47;1.30;;;40.70;31.40;;;;;;5000001;28;20561;-80
2022/08/22 10:36:44;;;;;;;2.10;1.20;;;41.20;31.20;;;;;;5021886;28;20599;-80
2022/08/22 10:39:21;;;;;;;2.47;0.80;;;41.60;31.00;;;;;;5020081;28;20569;-79
2022/08/22 10:42:10;;;;;;;2.70;1.00;;;42.00;30.70;;;;;;4989535;28;20610;-79
2022/08/22 10:44:50;;;;;;;1.73;0.70;;;42.30;30.50;;;;;;4980882;28;20587;-83
2022/08/22 10:47:33;;;;;;;2.30;0.80;;;42.50;30.30;;;;;;4980457;28;20644;-85
2022/08/22 10:50:17;;;;;;;2.37;1.20;;;42.50;29.30;;;;;;4985144;28;20927;-84
2022/08/22 10:53:28;;;;;;;2.50;1.10;;;41.80;28.80;;;;;;4971446;28;20630;-83
2022/08/22 10:55:43;;;;;;;2.13;0.83;;;40.90;28.40;;;;;;4976491;28;21001;-84
2022/08/22 10:58:12;;;;;;;2.33;0.93;;;39.80;28.50;;;;;;4994657;28;20621;-84
2022/08/22 11:00:41;;;;;;;2.37;0.90;;;39.20;29.00;;;;;;4987962;28;20590;-86
2022/08/22 11:03:30;;;;;;;2.37;1.23;;;38.70;29.40;;;;;;4973319;28;20646;-84
2022/08/22 11:06:02;;;;;;;3.47;1.30;;;38.30;29.50;;;;;;4946288;28;20795;-83
2022/08/22 11:08:42;;;;;;;4.00;0.90;;;37.60;29.80;;;;;;4992785;28;20250;-83
2022/08/22 11:11:35;;;;;;;1.97;0.90;;;37.30;30.00;;;;;;4992470;28;20905;-83
2022/08/22 11:14:08;;;;;;;2.90;0.90;;;36.90;30.20;;;;;;4992843;28;20562;-83
2022/08/22 11:16:46;;;;;;;3.13;0.90;;;36.60;30.90;;;;;;4992547;28;20601;-83
2022/08/22 11:19:31;;;;;;;2.50;0.93;;;36.60;31.10;;;;;;4992210;28;20654;-83
2022/08/22 11:22:18;;;;;;;4.10;1.00;;;36.70;31.10;;;;;;4992332;28;20578;-83
2022/08/22 11:25:04;;;;;;;1.90;1.10;;;36.50;30.90;;;;;;4997054;28;20984;-82
2022/08/22 11:27:55;;;;;;;3.37;1.53;;;36.10;30.80;;;;;;4974526;28;20799;-83
2022/08/22 11:30:42;;;;;;;3.13;1.20;;;35.40;31.50;;;;;;4991656;28;20582;-83
2022/08/22 11:33:17;;;;;;;1.70;0.90;;;35.10;31.90;;;;;;4991376;28;20571;-82
2022/08/22 11:35:47;;;;;;;3.00;1.40;;;35.10;32.30;;;;;;4971864;28;20632;-82
2022/08/22 11:38:31;;;;;;;4.00;1.40;;;35.20;32.50;;;;;;4987219;28;20607;-81
2022/08/22 11:40:57;;;;;;;2.23;1.07;;;35.30;32.20;;;;;;4973553;28;20586;-81
2022/08/22 11:43:26;;;;;;;5.60;1.80;;;35.20;32.00;;;;;;4955067;28;20583;-84
2022/08/22 11:45:57;;;;;;;2.10;1.07;;;35.10;32.20;;;;;;4976050;28;20642;-84
2022/08/22 11:48:57;;;;;;;3.83;0.80;;;35.10;32.20;;;;;;4987687;28;20638;-82
2022/08/22 11:51:25;;;;;;;2.50;1.10;;;35.20;32.20;;;;;;4975780;28;20653;-83
2022/08/22 11:54:32;;;;;;;2.40;0.90;;;35.40;32.70;;;;;;4976025;28;20586;-82
2022/08/22 11:57:12;;;;;;;2.07;1.13;;;35.70;33.60;;;;;;4949123;28;20642;-81
2022/08/22 11:59:44;;;;;;;2.83;1.30;;;36.20;33.40;;;;;;4943514;29;20592;-82
2022/08/22 12:02:27;;;;;;;2.87;1.00;;;36.60;32.90;;;;;;4959014;28;20602;-84
2022/08/22 12:05:31;;;;;;;2.80;0.90;;;36.80;32.40;;;;;;4976302;28;20618;-83
2022/08/22 12:08:09;;;;;;;3.27;1.00;;;36.80;32.20;;;;;;4975686;28;21060;-84
2022/08/22 12:11:05;;;;;;;3.40;1.10;;;36.90;31.80;;;;;;4939633;29;20571;-84
2022/08/22 12:13:44;;;;;;;1.93;0.93;;;36.60;31.30;;;;;;4965905;28;20587;-83
2022/08/22 12:16:38;;;;;;;2.00;1.00;;;36.40;31.50;;;;;;4938207;28;20602;-84
2022/08/22 12:19:03;;;;;;;3.00;1.40;;;36.00;31.40;;;;;;4973763;28;20718;-84
2022/08/22 12:21:38;;;;;;;2.57;0.90;;;35.50;31.90;;;;;;4995856;28;21211;-83
2022/08/22 12:24:42;;;;;;;2.53;1.03;;;35.40;32.30;;;;;;4974936;28;20797;-83
2022/08/22 12:27:14;;;;;;;4.17;1.00;;;35.40;32.20;;;;;;4947146;28;20986;-82
2022/08/22 12:30:14;;;;;;;2.73;1.00;;;35.30;31.90;;;;;;5003666;28;20950;-83
2022/08/22 12:32:57;;;;;;;4.13;1.00;;;35.00;31.80;;;;;;4927638;28;20591;-84
2022/08/22 12:35:41;;;;;;;3.27;1.23;;;34.90;31.80;;;;;;4976277;28;20914;-83
2022/08/22 12:38:41;;;;;;;2.20;1.00;;;34.80;32.20;;;;;;4980251;28;21153;-84
2022/08/22 12:41:16;;;;;;;8.40;1.40;;;34.60;32.40;;;;;;4975746;28;20926;-83
2022/08/22 12:44:01;;;;;;;1.80;1.00;;;34.50;32.30;;;;;;4974906;28;21163;-83
2022/08/22 12:46:51;;;;;;;3.30;1.20;;;34.50;32.40;;;;;;4993037;28;20649;-83
2022/08/22 12:49:45;;;;;;;3.30;1.50;;;34.30;32.40;;;;;;4976554;28;20987;-83
2022/08/22 12:52:18;;;;;;;3.20;1.10;;;34.10;32.40;;;;;;4966272;28;20693;-83
2022/08/22 12:55:10;;;;;;;2.60;1.30;;;34.00;32.60;;;;;;4985225;28;21018;-83
2022/08/22 12:57:54;;;;;;;2.80;1.40;;;34.00;32.70;;;;;;4994937;28;20715;-83
2022/08/22 13:00:30;;;;;;;2.33;1.03;;;34.00;32.70;;;;;;4995070;28;20590;-83
2022/08/22 13:03:01;;;;;;;4.43;1.30;;;33.80;32.50;;;;;;4993228;28;20576;-84
2022/08/22 13:05:29;;;;;;;3.33;2.37;;;33.60;32.50;;;;;;4993299;28;20915;-83
2022/08/22 13:08:03;;;;;;;3.77;2.40;;;33.50;32.90;;;;;;4992483;28;21103;-83
2022/08/22 13:10:46;;;;;;;2.57;1.60;;;33.50;33.20;;;;;;4994563;28;21113;-84
2022/08/22 13:13:23;;;;;;;2.23;1.00;;;33.50;33.40;;;;;;4946211;28;20578;-82
2022/08/22 13:16:03;;;;;;;2.90;1.50;;;33.50;33.40;;;;;;4959126;28;20615;-83
2022/08/22 13:18:46;;;;;;;3.20;1.67;;;33.60;33.90;;;;;;4990402;28;20644;-83
2022/08/22 13:21:16;;;;;;;3.30;1.13;;;33.70;34.20;;;;;;4976466;28;20582;-83
2022/08/22 13:23:49;;;;;;;3.07;1.30;;;33.80;33.90;;;;;;4995120;28;20572;-82
2022/08/22 13:26:18;;;;;;;6.40;1.90;;;33.80;33.60;;;;;;4997637;28;20579;-83
2022/08/22 13:28:54;;;;;;;2.40;1.57;;;33.80;33.60;;;;;;4986371;28;20662;-83
2022/08/22 13:31:28;;;;;;;2.10;1.10;;;33.80;33.40;;;;;;4985310;28;20594;-83
2022/08/22 13:34:00;;;;;;;3.17;1.60;;;33.80;33.20;;;;;;4985943;28;20577;-83
2022/08/22 13:36:29;;;;;;;2.73;1.17;;;33.80;33.20;;;;;;4980775;28;20691;-83
2022/08/22 13:39:13;;;;;;;2.60;1.60;;;33.80;33.20;;;;;;4983061;28;20635;-83
2022/08/22 13:41:44;;;;;;;2.20;1.13;;;33.80;33.30;;;;;;4990627;28;20575;-83
2022/08/22 13:44:36;;;;;;;3.00;1.63;;;33.80;32.90;;;;;;4978612;28;20636;-83
2022/08/22 13:47:16;;;;;;;1.87;0.93;;;33.80;33.00;;;;;;4966307;28;20626;-82
2022/08/22 13:49:48;;;;;;;2.73;1.50;;;33.80;33.20;;;;;;4964542;28;20605;-83
2022/08/22 13:52:35;;;;;;;2.77;1.40;;;33.70;33.00;;;;;;5000019;28;20577;-83
2022/08/22 13:55:32;;;;;;;3.00;1.37;;;33.70;33.10;;;;;;4997436;28;20753;-84
2022/08/22 13:58:05;;;;;;;2.30;1.30;;;33.50;33.80;;;;;;4966874;28;20597;-83
2022/08/22 14:00:37;;;;;;;3.00;1.07;;;33.50;33.70;;;;;;5018626;28;20575;-81
2022/08/22 14:03:09;;;;;;;2.57;1.00;;;33.60;33.50;;;;;;5022015;28;20595;-83
2022/08/22 14:05:43;;;;;;;2.37;0.90;;;33.60;33.30;;;;;;5006276;28;20593;-83